Time;durP1;ratioP1;P1;durP2;ratioP2;P2;SDS_P1;SDS_P2;PMS_P1;PMS_P2;Temp;Humidity;BMP_temperature;BMP_pressure;BME280_temperature;BME280_humidity;BME280_pressure;Samples;Min_cycle;Max_cycle;Signal;HPM_P1;HPM_P2
2022/04/01 00:01:56;;;;;;;0.00;0.00;;;6.80;99.90;;;;;;4993754;28;20226;-80
2022/04/01 00:04:22;;;;;;;0.00;0.00;;;6.80;99.90;;;;;;5009401;28;20030;-78
2022/04/01 00:06:48;;;;;;;0.00;0.00;;;6.80;99.90;;;;;;5007280;28;20209;-80
2022/04/01 00:09:14;;;;;;;0.00;0.00;;;6.80;99.90;;;;;;5011161;28;20218;-76
2022/04/01 00:11:59;;;;;;;0.00;0.00;;;6.80;99.90;;;;;;5020094;28;20371;-79
2022/04/01 00:14:24;;;;;;;0.32;0.32;;;6.80;99.90;;;;;;5010494;28;20037;-79
2022/04/01 00:16:51;;;;;;;0.00;0.00;;;6.80;99.90;;;;;;4999383;28;20209;-79
2022/04/01 00:19:18;;;;;;;0.00;0.00;;;6.80;99.90;;;;;;5015694;28;20021;-79
2022/04/01 00:21:43;;;;;;;0.00;0.00;;;6.70;99.90;;;;;;5003136;28;20089;-77
2022/04/01 00:24:09;;;;;;;0.00;0.00;;;6.70;99.90;;;;;;5019481;28;20340;-79
2022/04/01 00:26:35;;;;;;;0.00;0.00;;;6.70;99.90;;;;;;5007815;28;20241;-78
2022/04/01 00:29:01;;;;;;;0.00;0.00;;;6.70;99.90;;;;;;5002001;28;20222;-80
2022/04/01 00:31:26;;;;;;;0.00;0.00;;;6.70;99.90;;;;;;5018149;28;20030;-79
2022/04/01 00:34:15;;;;;;;0.00;0.00;;;6.70;99.90;;;;;;5010908;28;20245;-80
2022/04/01 00:36:38;;;;;;;0.00;0.00;;;6.70;99.90;;;;;;5001368;28;20212;-78
2022/04/01 00:39:03;;;;;;;0.00;0.00;;;6.70;99.90;;;;;;5012634;28;20031;-80
2022/04/01 00:44:22;;;;;;;0.00;0.00;;;6.70;99.90;;;;;;5008668;28;20072;-79
2022/04/01 00:47:00;;;;;;;0.00;0.00;;;6.70;99.90;;;;;;5006341;28;20025;-79
2022/04/01 00:49:27;;;;;;;0.00;0.00;;;6.60;99.90;;;;;;5009259;28;20052;-79
2022/04/01 00:51:55;;;;;;;0.00;0.00;;;6.60;99.90;;;;;;5000064;28;20033;-80
2022/04/01 00:54:21;;;;;;;0.00;0.00;;;6.60;99.90;;;;;;4996964;28;20062;-77
2022/04/01 00:56:47;;;;;;;0.00;0.00;;;6.60;99.90;;;;;;4997166;28;20028;-77
2022/04/01 00:59:13;;;;;;;0.00;0.00;;;6.60;99.90;;;;;;5006334;28;20053;-80
2022/04/01 01:01:41;;;;;;;0.00;0.00;;;6.50;99.90;;;;;;4979345;28;20069;-79
2022/04/01 01:04:08;;;;;;;0.00;0.00;;;6.50;99.90;;;;;;4977505;28;20126;-79
2022/04/01 01:06:41;;;;;;;0.00;0.00;;;6.50;99.90;;;;;;4959930;28;20023;-79
2022/04/01 01:09:07;;;;;;;0.00;0.00;;;6.50;99.90;;;;;;4962385;28;20027;-79
2022/04/01 01:11:35;;;;;;;0.00;0.00;;;6.50;99.90;;;;;;4976305;28;20031;-77
2022/04/01 01:14:08;;;;;;;0.00;0.00;;;6.40;99.90;;;;;;4973909;28;20031;-75
2022/04/01 01:16:40;;;;;;;0.00;0.00;;;6.50;99.90;;;;;;4959179;28;20207;-79
2022/04/01 01:19:10;;;;;;;0.00;0.00;;;6.50;99.90;;;;;;4977069;28;20026;-79
2022/04/01 01:21:36;;;;;;;0.00;0.00;;;6.50;99.90;;;;;;4969693;28;20203;-76
2022/04/01 01:24:08;;;;;;;0.00;0.00;;;6.40;99.90;;;;;;4973722;28;20034;-79
2022/04/01 01:26:36;;;;;;;0.10;0.10;;;6.40;99.90;;;;;;4974231;28;20154;-79
2022/04/01 01:29:04;;;;;;;0.00;0.00;;;6.40;99.90;;;;;;4973748;28;20033;-79
2022/04/01 01:31:30;;;;;;;0.00;0.00;;;6.40;99.90;;;;;;4959862;28;20023;-79
2022/04/01 01:33:57;;;;;;;0.00;0.00;;;6.40;99.90;;;;;;4971986;28;20309;-80
2022/04/01 01:36:25;;;;;;;0.00;0.00;;;6.40;99.90;;;;;;4972710;28;20027;-80
2022/04/01 01:38:51;;;;;;;0.00;0.00;;;6.40;99.90;;;;;;4971726;28;20310;-80
2022/04/01 01:41:17;;;;;;;0.00;0.00;;;6.30;99.90;;;;;;4969030;28;20030;-78
2022/04/01 01:43:43;;;;;;;0.00;0.00;;;6.30;99.90;;;;;;4958591;28;20247;-79
2022/04/01 01:46:09;;;;;;;0.00;0.00;;;6.30;99.90;;;;;;4976757;28;20306;-80
2022/04/01 01:48:35;;;;;;;0.00;0.00;;;6.40;99.90;;;;;;4973571;28;20364;-81
2022/04/01 01:56:29;;;;;;;0.00;0.00;;;6.30;99.90;;;;;;4959347;28;20025;-79
2022/04/01 01:58:55;;;;;;;0.00;0.00;;;6.30;99.90;;;;;;4972103;28;20023;-78
2022/04/01 02:01:22;;;;;;;0.00;0.00;;;6.20;99.90;;;;;;4972572;28;20290;-75
2022/04/01 02:03:49;;;;;;;0.00;0.00;;;6.30;99.90;;;;;;4976335;28;20045;-79
2022/04/01 02:06:15;;;;;;;0.00;0.00;;;6.30;99.90;;;;;;4976299;28;20298;-80
2022/04/01 02:08:41;;;;;;;0.00;0.00;;;6.20;99.90;;;;;;4976066;28;20616;-79
2022/04/01 02:11:07;;;;;;;0.00;0.00;;;6.20;99.90;;;;;;4966687;28;20062;-78
2022/04/01 02:13:34;;;;;;;0.00;0.00;;;6.20;99.90;;;;;;4962321;28;20049;-79
2022/04/01 02:16:00;;;;;;;0.00;0.00;;;6.20;99.90;;;;;;4973064;28;20027;-81
2022/04/01 02:18:26;;;;;;;0.00;0.00;;;6.20;99.90;;;;;;4968111;28;20027;-79
2022/04/01 02:20:53;;;;;;;0.00;0.00;;;6.30;99.90;;;;;;4972096;28;20034;-79
2022/04/01 02:23:19;;;;;;;0.00;0.00;;;6.20;99.90;;;;;;4975338;28;20141;-79
2022/04/01 02:25:44;;;;;;;0.00;0.00;;;6.20;99.90;;;;;;4965779;28;20030;-80
2022/04/01 02:28:12;;;;;;;0.00;0.00;;;6.20;99.90;;;;;;4975982;28;20046;-79
2022/04/01 02:30:38;;;;;;;0.00;0.00;;;6.30;99.90;;;;;;4973690;28;20035;-79
2022/04/01 02:33:06;;;;;;;0.00;0.00;;;6.20;99.90;;;;;;4972388;28;20050;-78
2022/04/01 02:35:32;;;;;;;0.00;0.00;;;6.20;99.90;;;;;;4973338;28;20026;-79
2022/04/01 02:37:58;;;;;;;0.00;0.00;;;6.20;99.90;;;;;;4962851;28;20031;-79
2022/04/01 02:40:23;;;;;;;0.00;0.00;;;6.20;99.90;;;;;;4967520;28;20080;-79
2022/04/01 02:42:53;;;;;;;0.00;0.00;;;6.20;99.90;;;;;;4965728;28;20321;-76
2022/04/01 02:45:24;;;;;;;0.00;0.00;;;6.20;99.90;;;;;;4971959;28;20023;-77
2022/04/01 02:47:50;;;;;;;0.00;0.00;;;6.20;99.90;;;;;;4973013;28;20038;-79
2022/04/01 02:50:16;;;;;;;0.20;0.00;;;6.20;99.90;;;;;;4965216;28;20067;-79
2022/04/01 02:52:42;;;;;;;0.00;0.00;;;6.20;99.90;;;;;;4975141;28;20393;-79
2022/04/01 02:55:09;;;;;;;0.00;0.00;;;6.20;99.90;;;;;;4972493;28;20019;-80
2022/04/01 02:57:35;;;;;;;0.00;0.00;;;6.20;99.90;;;;;;4964694;28;20026;-78
2022/04/01 03:00:00;;;;;;;0.00;0.00;;;6.20;99.90;;;;;;4965568;28;20562;-80
2022/04/01 03:02:27;;;;;;;0.00;0.00;;;6.20;99.90;;;;;;4989240;28;20379;-80
2022/04/01 03:04:52;;;;;;;0.00;0.00;;;6.20;99.90;;;;;;5010797;28;20073;-77
2022/04/01 03:07:18;;;;;;;0.00;0.00;;;6.10;99.90;;;;;;5012590;28;20033;-76
2022/04/01 03:09:45;;;;;;;0.00;0.00;;;6.10;99.90;;;;;;5008203;28;20324;-80
2022/04/01 03:12:11;;;;;;;0.00;0.00;;;6.10;99.90;;;;;;4990321;28;20242;-77
2022/04/01 03:14:37;;;;;;;0.00;0.00;;;6.10;99.90;;;;;;5001564;28;20057;-80
2022/04/01 03:17:03;;;;;;;0.00;0.00;;;6.10;99.90;;;;;;5019223;28;20049;-80
2022/04/01 03:19:29;;;;;;;0.00;0.00;;;6.10;99.90;;;;;;5001655;28;20018;-79
2022/04/01 03:21:55;;;;;;;0.00;0.00;;;6.10;99.90;;;;;;5001635;28;20060;-80
2022/04/01 03:24:21;;;;;;;0.00;0.00;;;6.00;99.90;;;;;;4998308;28;20398;-80
2022/04/01 03:26:47;;;;;;;0.00;0.00;;;6.00;99.90;;;;;;4999884;28;20310;-78
2022/04/01 03:29:13;;;;;;;0.00;0.00;;;6.00;99.90;;;;;;5001587;28;20054;-81
2022/04/01 03:31:40;;;;;;;0.00;0.00;;;6.00;99.90;;;;;;4997930;28;20069;-80
2022/04/01 03:34:07;;;;;;;0.00;0.00;;;6.10;99.90;;;;;;5000992;28;20277;-79
2022/04/01 03:36:36;;;;;;;0.28;0.28;;;6.00;99.90;;;;;;5016943;28;20022;-80
2022/04/01 03:39:03;;;;;;;0.00;0.00;;;6.00;99.90;;;;;;5003777;28;20052;-79
2022/04/01 03:41:30;;;;;;;0.00;0.00;;;6.00;99.90;;;;;;5015210;28;20018;-79
2022/04/01 03:43:56;;;;;;;0.00;0.00;;;6.00;99.90;;;;;;5000483;28;20094;-80
2022/04/01 03:46:26;;;;;;;0.00;0.00;;;6.00;99.90;;;;;;5009751;28;20038;-80
2022/04/01 03:49:24;;;;;;;0.00;0.00;;;6.00;99.90;;;;;;5010600;28;20030;-78
2022/04/01 03:51:51;;;;;;;0.00;0.00;;;5.90;99.90;;;;;;5018658;28;20393;-80
2022/04/01 03:54:17;;;;;;;0.00;0.00;;;6.00;99.90;;;;;;4998308;28;20046;-79
2022/04/01 03:56:50;;;;;;;0.00;0.00;;;6.00;99.90;;;;;;4989073;28;20335;-80
2022/04/01 03:59:17;;;;;;;0.00;0.00;;;6.00;99.90;;;;;;5000537;28;20045;-78
2022/04/01 04:01:43;;;;;;;0.00;0.00;;;5.90;99.90;;;;;;4999856;28;20061;-80
2022/04/01 04:04:13;;;;;;;0.00;0.00;;;6.00;99.90;;;;;;4997988;28;20019;-78
2022/04/01 04:06:40;;;;;;;0.00;0.00;;;6.00;99.90;;;;;;4992423;28;20285;-79
2022/04/01 04:11:50;;;;;;;0.00;0.00;;;6.00;99.90;;;;;;5005061;28;20063;-80
2022/04/01 04:14:16;;;;;;;0.00;0.00;;;5.90;99.90;;;;;;5000825;28;20022;-80
2022/04/01 04:16:47;;;;;;;0.00;0.00;;;6.00;99.90;;;;;;5006726;28;20022;-79
2022/04/01 04:19:30;;;;;;;0.00;0.00;;;5.80;99.90;;;;;;4996566;28;20018;-80
2022/04/01 04:22:08;;;;;;;0.00;0.00;;;5.90;99.90;;;;;;5018281;28;20032;-80
2022/04/01 04:25:10;;;;;;;0.00;0.00;;;6.00;99.90;;;;;;5015892;28;20018;-79
2022/04/01 04:27:39;;;;;;;0.00;0.00;;;5.90;99.90;;;;;;5000137;28;20487;-77
2022/04/01 04:30:08;;;;;;;0.00;0.00;;;5.90;99.90;;;;;;5017816;28;20651;-79
2022/04/01 04:32:45;;;;;;;0.00;0.00;;;6.00;99.90;;;;;;5017444;28;20033;-79
2022/04/01 04:35:11;;;;;;;0.00;0.00;;;6.10;99.90;;;;;;5018036;28;20598;-77
2022/04/01 04:37:46;;;;;;;0.00;0.00;;;6.00;99.90;;;;;;5000011;28;20022;-79
2022/04/01 04:40:14;;;;;;;0.00;0.00;;;6.00;99.90;;;;;;5015387;28;20041;-78
2022/04/01 04:42:53;;;;;;;0.00;0.00;;;6.00;99.90;;;;;;5016731;28;20030;-79
2022/04/01 04:45:19;;;;;;;;;;;6.00;99.90;;;;;;5018261;28;20028;-79
2022/04/01 04:47:46;;;;;;;0.00;0.00;;;5.90;99.90;;;;;;4997619;28;19901;-78
2022/04/01 04:50:32;;;;;;;0.00;0.00;;;5.90;99.90;;;;;;5000072;28;20037;-75
2022/04/01 04:52:57;;;;;;;0.00;0.00;;;6.00;99.90;;;;;;5017609;28;20047;-78
2022/04/01 04:55:25;;;;;;;0.00;0.00;;;6.00;99.90;;;;;;5000670;28;20037;-79
2022/04/01 04:57:52;;;;;;;0.00;0.00;;;6.00;99.90;;;;;;5017655;28;20025;-79
2022/04/01 05:00:20;;;;;;;0.00;0.00;;;6.00;99.90;;;;;;5017598;28;20038;-79
2022/04/01 05:03:17;;;;;;;0.00;0.00;;;6.00;99.90;;;;;;5014381;28;20104;-80
2022/04/01 05:05:46;;;;;;;0.00;0.00;;;6.00;99.90;;;;;;5015530;28;20278;-78
2022/04/01 05:08:44;;;;;;;0.00;0.00;;;6.00;99.90;;;;;;5017094;28;20036;-76
2022/04/01 05:11:45;;;;;;;0.00;0.00;;;6.10;99.90;;;;;;5017259;28;20132;-79
2022/04/01 05:14:11;;;;;;;0.00;0.00;;;6.00;99.90;;;;;;5017503;28;20033;-78
2022/04/01 05:17:26;;;;;;;0.00;0.00;;;6.10;99.90;;;;;;4999247;28;20018;-80
2022/04/01 05:20:00;;;;;;;0.00;0.00;;;6.10;99.90;;;;;;5012135;28;20025;-79
2022/04/01 05:22:54;;;;;;;0.00;0.00;;;6.00;99.90;;;;;;5016982;28;20732;-80
2022/04/01 05:25:22;;;;;;;0.00;0.00;;;6.00;99.90;;;;;;4996991;28;20022;-81
2022/04/01 05:27:53;;;;;;;0.00;0.00;;;6.00;99.90;;;;;;5016050;28;20060;-81
2022/04/01 05:30:23;;;;;;;0.00;0.00;;;6.00;99.90;;;;;;4999062;28;20237;-78
2022/04/01 05:33:08;;;;;;;0.00;0.00;;;6.00;99.90;;;;;;5016886;28;20029;-79
2022/04/01 05:35:40;;;;;;;0.00;0.00;;;6.00;99.90;;;;;;4998597;28;20014;-79
2022/04/01 05:38:07;;;;;;;0.00;0.00;;;6.00;99.90;;;;;;4999214;28;20030;-81
2022/04/01 05:40:34;;;;;;;0.00;0.00;;;6.00;99.90;;;;;;4998536;28;20038;-81
2022/04/01 05:43:01;;;;;;;0.00;0.00;;;6.10;99.90;;;;;;4998907;28;20141;-81
2022/04/01 05:45:29;;;;;;;0.08;0.00;;;4.90;99.90;;;;;;5016008;28;20041;-80
2022/04/01 05:47:56;;;;;;;0.00;0.00;;;6.10;99.90;;;;;;4998822;28;20030;-79
2022/04/01 05:50:23;;;;;;;0.00;0.00;;;6.20;99.90;;;;;;4998662;28;20034;-76
2022/04/01 05:52:50;;;;;;;0.00;0.00;;;6.10;99.90;;;;;;5015186;28;20037;-80
2022/04/01 05:55:21;;;;;;;0.00;0.00;;;6.10;99.90;;;;;;5016158;28;20205;-76
2022/04/01 05:57:47;;;;;;;0.00;0.00;;;6.00;99.90;;;;;;5016396;28;20056;-80
2022/04/01 06:00:14;;;;;;;0.00;0.00;;;6.10;99.90;;;;;;5015916;28;20256;-80
2022/04/01 06:02:52;;;;;;;0.00;0.00;;;6.10;99.90;;;;;;4998360;28;20363;-81
2022/04/01 06:05:41;;;;;;;0.00;0.00;;;6.10;99.90;;;;;;5007711;28;20041;-80
2022/04/01 06:08:37;;;;;;;0.00;0.00;;;6.10;99.90;;;;;;5014803;28;20123;-80
2022/04/01 06:11:28;;;;;;;0.22;0.22;;;6.10;99.90;;;;;;4995439;28;20301;-81
2022/04/01 06:14:07;;;;;;;0.00;0.00;;;6.10;99.90;;;;;;4998768;28;20335;-81
2022/04/01 06:17:08;;;;;;;0.00;0.00;;;6.20;99.90;;;;;;4998274;28;20093;-82
2022/04/01 06:19:44;;;;;;;0.00;0.00;;;6.10;99.90;;;;;;4994489;28;20034;-81
2022/04/01 06:22:15;;;;;;;0.00;0.00;;;6.10;99.90;;;;;;5016402;28;20316;-81
2022/04/01 06:25:10;;;;;;;0.00;0.00;;;6.10;99.90;;;;;;4994699;28;20249;-76
2022/04/01 06:27:45;;;;;;;0.00;0.00;;;6.10;99.90;;;;;;5015229;28;20017;-81
2022/04/01 06:30:14;;;;;;;0.00;0.00;;;6.10;99.90;;;;;;4998240;28;20030;-77
2022/04/01 06:32:54;;;;;;;0.00;0.00;;;6.10;99.90;;;;;;4998349;28;20034;-81
2022/04/01 06:35:26;;;;;;;0.00;0.00;;;6.10;99.90;;;;;;5016247;28;20037;-80
2022/04/01 06:38:07;;;;;;;0.00;0.00;;;6.10;99.90;;;;;;5015655;28;20028;-80
2022/04/01 06:40:52;;;;;;;0.00;0.00;;;6.10;99.90;;;;;;4994507;28;20034;-80
2022/04/01 06:43:18;;;;;;;0.00;0.00;;;6.20;99.90;;;;;;5014383;28;20244;-81
2022/04/01 06:45:44;;;;;;;0.00;0.00;;;6.20;99.90;;;;;;5012307;28;20025;-81
2022/04/01 06:48:10;;;;;;;0.00;0.00;;;6.20;99.90;;;;;;5015733;28;20026;-81
2022/04/01 06:50:36;;;;;;;0.00;0.00;;;6.10;99.90;;;;;;4997107;28;20076;-81
2022/04/01 06:53:02;;;;;;;0.00;0.00;;;6.10;99.90;;;;;;4997876;28;20044;-79
2022/04/01 06:55:28;;;;;;;0.00;0.00;;;6.20;99.90;;;;;;5014892;28;20060;-81
2022/04/01 06:57:54;;;;;;;0.00;0.00;;;6.20;99.90;;;;;;4998391;28;20095;-80
2022/04/01 07:00:20;;;;;;;0.00;0.00;;;6.20;99.90;;;;;;5015935;28;20022;-79
2022/04/01 07:03:04;;;;;;;0.00;0.00;;;6.10;99.90;;;;;;4994414;28;20333;-81
2022/04/01 07:05:35;;;;;;;0.00;0.00;;;6.20;99.90;;;;;;5015340;28;20327;-81
2022/04/01 07:08:04;;;;;;;0.00;0.00;;;6.20;99.90;;;;;;5016339;28;20250;-80
2022/04/01 07:10:31;;;;;;;0.20;0.15;;;6.20;99.90;;;;;;4994665;28;20026;-80
2022/04/01 07:12:57;;;;;;;0.00;0.00;;;6.30;99.90;;;;;;4985745;28;20050;-80
2022/04/01 07:15:23;;;;;;;0.00;0.00;;;6.20;99.90;;;;;;4994510;28;20064;-76
2022/04/01 07:17:49;;;;;;;0.00;0.00;;;6.30;99.90;;;;;;4999028;28;20030;-81
2022/04/01 07:20:15;;;;;;;0.00;0.00;;;6.20;99.90;;;;;;5008179;28;20178;-80
2022/04/01 07:22:42;;;;;;;0.00;0.00;;;6.20;99.90;;;;;;5011618;28;20326;-74
2022/04/01 07:25:12;;;;;;;0.00;0.00;;;6.30;99.90;;;;;;4997667;28;20212;-79
2022/04/01 07:27:38;;;;;;;0.15;0.00;;;6.30;99.90;;;;;;5007197;28;20030;-81
2022/04/01 07:30:08;;;;;;;0.00;0.00;;;6.30;99.90;;;;;;4994930;28;20026;-81
2022/04/01 07:32:35;;;;;;;0.00;0.00;;;6.30;99.90;;;;;;4987220;28;20057;-80
2022/04/01 07:35:05;;;;;;;0.15;0.15;;;6.20;99.90;;;;;;5009892;28;20333;-80
2022/04/01 07:37:31;;;;;;;0.00;0.00;;;6.20;99.90;;;;;;4995194;28;20452;-79
2022/04/01 07:39:57;;;;;;;0.00;0.00;;;6.20;99.90;;;;;;4995582;28;20026;-81
2022/04/01 07:42:25;;;;;;;0.00;0.00;;;6.20;99.90;;;;;;4993365;28;20045;-77
2022/04/01 07:44:52;;;;;;;0.00;0.00;;;6.20;99.90;;;;;;4990914;28;20030;-78
2022/04/01 07:47:18;;;;;;;0.00;0.00;;;6.20;99.90;;;;;;4999046;28;20068;-79
2022/04/01 07:49:48;;;;;;;0.00;0.00;;;6.10;99.90;;;;;;4996964;28;20029;-81
2022/04/01 07:52:15;;;;;;;0.00;0.00;;;6.20;99.90;;;;;;5001040;28;20038;-80
2022/04/01 07:54:42;;;;;;;0.00;0.00;;;6.30;99.90;;;;;;5016700;28;20057;-80
2022/04/01 07:57:10;;;;;;;0.00;0.00;;;6.30;99.90;;;;;;4998651;28;20101;-80
2022/04/01 07:59:36;;;;;;;0.00;0.00;;;6.30;99.90;;;;;;5006884;28;20077;-81
2022/04/01 08:02:03;;;;;;;0.00;0.00;;;6.30;99.90;;;;;;5012220;28;20054;-81
2022/04/01 08:04:29;;;;;;;1.02;0.13;;;6.30;99.90;;;;;;5002341;28;20337;-81
2022/04/01 08:06:55;;;;;;;0.00;0.00;;;6.40;99.90;;;;;;5014293;28;20021;-79
2022/04/01 08:09:23;;;;;;;0.00;0.00;;;6.40;99.90;;;;;;5007177;28;20033;-79
2022/04/01 08:11:53;;;;;;;0.17;0.17;;;6.40;99.90;;;;;;5002511;28;20049;-81
2022/04/01 08:14:19;;;;;;;0.00;0.00;;;6.40;99.90;;;;;;5011535;28;20121;-80
2022/04/01 08:16:46;;;;;;;0.00;0.00;;;6.40;99.90;;;;;;5017019;28;20041;-82
2022/04/01 08:19:12;;;;;;;0.00;0.00;;;6.30;99.90;;;;;;5011382;28;20023;-79
2022/04/01 08:21:39;;;;;;;0.40;0.22;;;6.30;99.90;;;;;;5006683;28;20033;-81
2022/04/01 08:24:05;;;;;;;0.15;0.10;;;6.30;99.90;;;;;;4992382;28;20022;-79
2022/04/01 08:26:31;;;;;;;0.00;0.00;;;6.40;99.90;;;;;;5009850;28;20083;-76
2022/04/01 08:28:57;;;;;;;0.10;0.00;;;6.30;99.90;;;;;;5018052;28;20289;-80
2022/04/01 08:31:24;;;;;;;0.03;0.03;;;6.30;99.90;;;;;;5000344;28;20026;-80
2022/04/01 08:33:50;;;;;;;0.00;0.00;;;6.40;99.90;;;;;;4998797;28;20034;-80
2022/04/01 08:36:17;;;;;;;0.00;0.00;;;6.40;99.90;;;;;;5000220;28;20166;-80
2022/04/01 08:38:44;;;;;;;0.00;0.00;;;6.30;99.90;;;;;;4999787;28;20291;-78
2022/04/01 08:41:10;;;;;;;0.00;0.00;;;6.30;99.90;;;;;;5011926;28;20073;-79
2022/04/01 08:43:42;;;;;;;0.00;0.00;;;6.40;99.90;;;;;;5014129;28;20034;-80
2022/04/01 08:46:09;;;;;;;0.17;0.10;;;6.40;99.90;;;;;;4999449;28;20064;-80
2022/04/01 08:48:37;;;;;;;0.00;0.00;;;6.40;99.90;;;;;;4998207;28;20018;-80
2022/04/01 08:51:03;;;;;;;0.00;0.00;;;6.40;99.90;;;;;;4999696;28;20044;-80
2022/04/01 08:53:29;;;;;;;0.98;0.68;;;6.30;99.90;;;;;;4997201;28;20241;-80
2022/04/01 08:55:56;;;;;;;2.60;0.10;;;6.30;99.90;;;;;;4996796;28;20022;-79
2022/04/01 08:58:25;;;;;;;0.00;0.00;;;6.30;99.90;;;;;;5005938;28;20018;-79
2022/04/01 09:00:51;;;;;;;0.00;0.00;;;6.30;99.90;;;;;;5009007;28;20474;-80
2022/04/01 09:03:21;;;;;;;0.00;0.00;;;6.30;99.90;;;;;;5002486;28;20056;-81
2022/04/01 09:05:58;;;;;;;0.00;0.00;;;6.30;99.90;;;;;;4997812;28;20093;-81
2022/04/01 09:08:26;;;;;;;0.00;0.00;;;6.30;99.90;;;;;;5009468;28;20042;-74
2022/04/01 09:10:58;;;;;;;0.00;0.00;;;6.30;99.90;;;;;;4999402;28;20096;-80
2022/04/01 09:13:27;;;;;;;0.10;0.00;;;6.30;99.90;;;;;;4999489;28;20033;-76
2022/04/01 09:15:54;;;;;;;0.00;0.00;;;6.40;99.90;;;;;;4996494;28;20030;-80
2022/04/01 09:18:44;;;;;;;0.00;0.00;;;6.40;99.90;;;;;;5001785;28;20022;-80
2022/04/01 09:21:31;;;;;;;0.00;0.00;;;6.50;99.90;;;;;;5003443;28;20046;-79
2022/04/01 09:23:58;;;;;;;0.00;0.00;;;6.60;99.90;;;;;;4999031;28;20068;-81
2022/04/01 09:26:35;;;;;;;0.00;0.00;;;6.50;99.90;;;;;;5009025;28;20026;-81
2022/04/01 09:29:02;;;;;;;0.00;0.00;;;6.50;99.90;;;;;;5012361;28;20030;-76
2022/04/01 09:31:37;;;;;;;0.00;0.00;;;6.40;99.90;;;;;;4987618;28;20026;-79
2022/04/01 09:34:09;;;;;;;2.83;1.75;;;6.50;99.90;;;;;;4999657;28;20709;-84
2022/04/01 09:36:41;;;;;;;0.00;0.00;;;6.50;99.90;;;;;;5008733;28;20021;-81
2022/04/01 09:39:16;;;;;;;0.00;0.00;;;6.50;99.90;;;;;;5004210;28;20026;-82
2022/04/01 09:41:43;;;;;;;0.10;0.00;;;6.60;99.90;;;;;;5005816;28;20034;-82
2022/04/01 09:44:15;;;;;;;0.00;0.00;;;6.70;99.90;;;;;;4999594;28;20033;-81
2022/04/01 09:46:44;;;;;;;0.00;0.00;;;6.80;99.90;;;;;;5008043;28;20067;-80
2022/04/01 09:49:10;;;;;;;0.00;0.00;;;6.70;99.90;;;;;;4999387;28;20312;-81
2022/04/01 09:51:43;;;;;;;0.00;0.00;;;6.70;99.90;;;;;;5016078;28;20037;-81
2022/04/01 09:54:10;;;;;;;0.00;0.00;;;6.70;99.90;;;;;;4995911;28;20037;-82
2022/04/01 09:56:45;;;;;;;0.00;0.00;;;6.70;99.90;;;;;;4998590;28;20089;-82
2022/04/01 09:59:13;;;;;;;0.00;0.00;;;6.70;99.90;;;;;;5002788;28;20402;-76
2022/04/01 10:01:40;;;;;;;0.00;0.00;;;6.60;99.90;;;;;;4997821;28;20049;-79
2022/04/01 10:04:06;;;;;;;0.00;0.00;;;6.70;99.90;;;;;;4996041;28;20050;-81
2022/04/01 10:06:34;;;;;;;0.00;0.00;;;6.70;99.90;;;;;;5004231;28;20021;-80
2022/04/01 10:09:05;;;;;;;0.20;0.00;;;6.70;99.90;;;;;;5008546;28;20026;-82
2022/04/01 10:11:31;;;;;;;0.00;0.00;;;6.70;99.90;;;;;;5004816;28;20571;-80
2022/04/01 10:14:05;;;;;;;0.00;0.00;;;6.80;99.90;;;;;;4998187;28;20083;-82
2022/04/01 10:16:33;;;;;;;0.00;0.00;;;6.90;99.90;;;;;;5006519;28;20093;-76
2022/04/01 10:19:08;;;;;;;0.00;0.00;;;6.80;99.90;;;;;;4994641;28;20022;-78
2022/04/01 10:21:38;;;;;;;0.00;0.00;;;6.90;99.90;;;;;;5007438;28;20030;-82
2022/04/01 10:24:10;;;;;;;0.00;0.00;;;6.90;99.90;;;;;;5007602;28;20053;-82
2022/04/01 10:26:40;;;;;;;0.00;0.00;;;6.90;99.90;;;;;;4999401;28;20049;-81
2022/04/01 10:29:07;;;;;;;0.00;0.00;;;6.80;99.90;;;;;;4990904;28;20057;-83
2022/04/01 10:31:33;;;;;;;0.10;0.00;;;6.70;99.90;;;;;;4995397;28;20030;-82
2022/04/01 10:34:18;;;;;;;0.00;0.00;;;6.80;99.90;;;;;;5003633;28;20077;-79
2022/04/01 10:37:00;;;;;;;0.00;0.00;;;6.90;99.90;;;;;;5021045;28;20018;-77
2022/04/01 10:39:26;;;;;;;0.03;0.00;;;6.90;99.90;;;;;;5014891;28;20061;-79
2022/04/01 10:42:12;;;;;;;0.00;0.00;;;6.90;99.90;;;;;;5010446;28;20042;-75
2022/04/01 10:44:53;;;;;;;0.00;0.00;;;6.90;99.90;;;;;;5003693;28;20049;-83
2022/04/01 10:47:21;;;;;;;0.00;0.00;;;6.90;99.90;;;;;;5000021;28;20024;-75
2022/04/01 10:52:31;;;;;;;0.00;0.00;;;7.00;99.90;;;;;;5002024;28;19952;-71
2022/04/01 10:55:03;;;;;;;0.00;0.00;;;7.00;99.90;;;;;;5002712;28;20030;-69
2022/04/01 10:57:31;;;;;;;0.00;0.00;;;7.10;99.90;;;;;;5010828;28;20049;-70
2022/04/01 11:00:04;;;;;;;0.43;0.43;;;7.10;99.90;;;;;;5010455;28;20022;-70
2022/04/01 11:02:30;;;;;;;0.00;0.00;;;7.10;99.90;;;;;;5005083;28;20210;-71
2022/04/01 11:04:56;;;;;;;0.00;0.00;;;;;;;;;;4996108;28;20056;-76
2022/04/01 11:07:22;;;;;;;0.30;0.10;;;;;;;;;;5006966;28;20500;-75
2022/04/01 11:09:54;;;;;;;0.00;0.00;;;;;;;;;;5004455;28;20453;-75
2022/04/01 11:12:31;;;;;;;0.00;0.00;;;;;;;;;;4995737;28;20036;-76
2022/04/01 11:15:02;;;;;;;0.00;0.00;;;;;;;;;;5002676;28;20038;-76
2022/04/01 11:17:29;;;;;;;0.00;0.00;;;;;;;;;;4997011;28;20018;-74
2022/04/01 11:20:09;;;;;;;0.00;0.00;;;;;;;;;;5003948;28;20018;-77
2022/04/01 11:22:36;;;;;;;0.00;0.00;;;;;;;;;;4995419;28;20033;-78
2022/04/01 11:25:03;;;;;;;0.10;0.10;;;;;;;;;;4996354;28;20064;-75
2022/04/01 11:27:30;;;;;;;0.00;0.00;;;;;;;;;;4993166;28;20060;-77
2022/04/01 11:30:24;;;;;;;0.00;0.00;;;;;;;;;;5005861;28;20081;-78
2022/04/01 11:32:58;;;;;;;0.10;0.10;;;;;;;;;;4987414;28;20049;-79
2022/04/01 11:35:29;;;;;;;0.00;0.00;;;;;;;;;;5003386;28;20026;-75
2022/04/01 11:37:55;;;;;;;0.00;0.00;;;;;;;;;;5011476;28;20024;-77
2022/04/01 11:40:25;;;;;;;0.00;0.00;;;;;;;;;;5001489;28;20419;-75
2022/04/01 11:43:01;;;;;;;0.00;0.00;;;;;;;;;;4998095;28;20026;-76
2022/04/01 11:45:29;;;;;;;0.00;0.00;;;;;;;;;;5015212;28;20026;-74
2022/04/01 11:47:56;;;;;;;0.00;0.00;;;;;;;;;;5009530;28;20185;-76
2022/04/01 11:53:08;;;;;;;0.00;0.00;;;;;;;;;;5013318;28;20281;-78
2022/04/01 11:55:42;;;;;;;0.00;0.00;;;;;;;;;;5008388;28;20170;-78
2022/04/01 11:58:09;;;;;;;0.00;0.00;;;;;;;;;;4998206;28;20327;-79
2022/04/01 12:00:35;;;;;;;0.00;0.00;;;;;;;;;;5008853;28;20019;-77
2022/04/01 12:03:01;;;;;;;0.00;0.00;;;;;;;;;;5011049;28;20485;-78
2022/04/01 12:05:32;;;;;;;0.00;0.00;;;;;;;;;;5011747;28;20038;-77
2022/04/01 12:10:51;;;;;;;0.00;0.00;;;;;;;;;;4999755;28;20156;-76
2022/04/01 12:13:17;;;;;;;0.00;0.00;;;;;;;;;;5017343;28;20087;-78
2022/04/01 12:15:44;;;;;;;0.00;0.00;;;;;;;;;;5017691;28;20022;-75
2022/04/01 12:18:15;;;;;;;0.00;0.00;;;;;;;;;;5018504;28;20018;-77
2022/04/01 12:20:52;;;;;;;0.00;0.00;;;;;;;;;;5000422;28;20343;-78
2022/04/01 12:23:21;;;;;;;0.00;0.00;;;;;;;;;;5001078;28;20025;-77
2022/04/01 12:25:48;;;;;;;0.00;0.00;;;;;;;;;;5017576;28;20308;-77
2022/04/01 12:28:16;;;;;;;0.00;0.00;;;;;;;;;;5000493;28;20303;-78
2022/04/01 12:30:49;;;;;;;0.00;0.00;;;;;;;;;;5017365;28;20289;-77
2022/04/01 12:33:16;;;;;;;0.00;0.00;;;;;;;;;;5000386;28;20026;-77
2022/04/01 12:35:55;;;;;;;0.00;0.00;;;;;;;;;;4999803;28;20093;-78
2022/04/01 12:38:22;;;;;;;0.00;0.00;;;;;;;;;;4997301;28;20471;-75
2022/04/01 12:40:48;;;;;;;0.00;0.00;;;;;;;;;;5015440;28;20026;-77
2022/04/01 12:43:32;;;;;;;0.00;0.00;;;;;;;;;;4997111;28;20029;-76
2022/04/01 12:46:03;;;;;;;0.00;0.00;;;;;;;;;;5017709;28;20022;-75
2022/04/01 12:48:29;;;;;;;0.00;0.00;;;;;;;;;;5003696;28;20014;-73
2022/04/01 12:50:57;;;;;;;0.00;0.00;;;;;;;;;;5017653;28;20026;-76
2022/04/01 12:53:23;;;;;;;0.00;0.00;;;;;;;;;;5017764;28;20088;-78
2022/04/01 12:55:49;;;;;;;0.00;0.00;;;;;;;;;;5017183;28;20302;-77
2022/04/01 12:58:16;;;;;;;0.30;0.10;;;;;;;;;;5015911;28;20018;-77
2022/04/01 13:00:43;;;;;;;0.00;0.00;;;;;;;;;;5013356;28;20064;-77
2022/04/01 13:03:09;;;;;;;0.00;0.00;;;;;;;;;;5016285;28;20030;-76
2022/04/01 13:05:37;;;;;;;0.45;0.45;;;;;;;;;;4999110;28;20301;-77
2022/04/01 13:08:03;;;;;;;0.00;0.00;;;;;;;;;;4999711;28;20014;-77
2022/04/01 13:10:31;;;;;;;0.00;0.00;;;;;;;;;;5016490;28;20089;-75
2022/04/01 13:12:57;;;;;;;0.00;0.00;;;;;;;;;;4999583;28;20013;-78
2022/04/01 13:15:27;;;;;;;0.00;0.00;;;;;;;;;;5016558;28;20029;-77
2022/04/01 13:17:53;;;;;;;0.00;0.00;;;;;;;;;;4998591;28;20022;-78
2022/04/01 13:20:23;;;;;;;0.00;0.00;;;;;;;;;;4999757;28;20099;-77
2022/04/01 13:22:50;;;;;;;0.00;0.00;;;;;;;;;;4998564;28;20131;-78
2022/04/01 13:25:16;;;;;;;0.00;0.00;;;;;;;;;;4998587;28;20040;-78
2022/04/01 13:27:43;;;;;;;0.28;0.28;;;;;;;;;;4995868;28;20048;-78
2022/04/01 13:30:09;;;;;;;0.00;0.00;;;;;;;;;;4996204;28;20049;-78
2022/04/01 13:32:36;;;;;;;0.00;0.00;;;;;;;;;;4996565;28;20053;-78
2022/04/01 13:35:03;;;;;;;0.00;0.00;;;;;;;;;;5001836;28;20032;-76
2022/04/01 13:37:30;;;;;;;0.00;0.00;;;;;;;;;;4995847;28;20085;-77
2022/04/01 13:39:56;;;;;;;0.00;0.00;;;;;;;;;;5016268;28;20081;-75
2022/04/01 13:42:26;;;;;;;0.30;0.30;;;;;;;;;;4998734;28;20080;-77
2022/04/01 13:44:52;;;;;;;0.00;0.00;;;;;;;;;;5015405;28;20045;-76
2022/04/01 13:47:18;;;;;;;0.00;0.00;;;;;;;;;;4998759;28;20076;-78
2022/04/01 13:49:45;;;;;;;0.00;0.00;;;;;;;;;;4998078;28;20025;-77
2022/04/01 13:52:11;;;;;;;0.00;0.00;;;;;;;;;;4998398;28;20310;-78